Date,TemperatureHighF,TemperatureAvgF,TemperatureLowF,DewpointHighF,DewpointAvgF,DewpointLowF,HumidityHigh,HumidityAvg,HumidityLow,PressureMaxIn,PressureMinIn,WindSpeedMaxMPH,WindSpeedAvgMPH,GustSpeedMaxMPH,PrecipitationSumIn
2013-2-24,31,31,30,30,30,29,96,96,96,29.85,29.77,10,5,15,0.34
2013-2-25,45,35,29,33,30,27,96,83,58,30.20,29.85,8,3,13,0.04
2013-2-26,42,37,31,35,31,29,94,80,63,30.30,30.13,13,3,17,0.00
2013-2-27,41,40,38,40,38,33,97,94,81,30.14,29.50,25,11,38,1.24
2013-2-28,52,40,34,40,36,33,100,87,60,29.60,29.48,7,3,11,0.01
2013-3-1,40,37,36,35,32,29,92,80,70,29.63,29.49,11,4,15,0.00
2013-3-2,41,37,32,32,29,27,80,71,64,29.62,29.57,11,5,16,0.00
2013-3-3,40,36,32,34,30,27,86,79,72,29.59,29.51,19,6,22,0.00
2013-3-4,38,34,31,30,25,23,89,70,57,29.68,29.52,26,12,34,0.00
2013-3-5,42,37,31,35,29,23,89,74,63,30.02,29.68,18,6,26,0.00
2013-3-6,40,38,35,36,34,29,92,84,72,30.08,30.00,27,14,41,0.08
2013-3-7,37,33,30,32,31,30,97,93,74,30.03,29.93,38,15,38,0.02
2013-3-8,42,34,29,35,29,24,98,85,54,30.10,29.89,33,10,44,0.42
2013-3-9,41,36,29,32,28,23,93,74,59,30.31,30.10,18,6,28,0.00
2013-3-10,40,34,27,34,30,26,94,86,74,30.37,30.28,8,3,11,0.01
2013-3-11,49,42,35,40,38,32,94,84,68,30.29,30.11,11,5,19,0.00
2013-3-12,52,46,41,52,44,40,98,95,91,30.13,29.69,9,4,15,0.16
2013-3-13,57,46,36,51,34,21,97,64,33,29.74,29.64,12,7,22,0.01
2013-3-14,36,33,24,25,18,7,70,54,41,29.78,29.65,26,8,30,0.00
2013-3-15,41,30,20,28,12,5,74,50,26,29.82,29.59,21,9,29,0.00
2013-3-16,43,36,28,27,16,8,71,44,26,29.84,29.62,19,5,29,0.00
2013-3-17,41,32,24,18,11,4,66,43,24,30.28,29.84,16,6,28,0.00
2013-3-18,34,28,19,28,12,1,91,53,38,30.42,30.22,14,5,17,0.00
2013-3-19,35,32,27,35,31,26,97,96,91,30.22,29.55,26,11,33,0.54
2013-3-20,40,31,24,26,23,19,99,72,46,29.77,29.63,19,7,29,0.05
2013-3-21,35,31,29,30,23,19,94,71,54,29.77,29.57,10,3,11,0.00
2013-3-22,40,34,30,28,21,16,92,62,41,29.68,29.56,17,8,25,0.01
2013-3-23,43,36,29,23,20,18,74,54,37,29.72,29.58,24,12,34,0.00
2013-3-24,46,39,32,33,27,21,80,63,41,29.76,29.68,17,5,24,0.00
2013-3-25,44,38,33,36,32,26,84,78,69,29.73,29.49,23,7,26,0.00
2013-3-26,49,41,34,33,25,20,94,57,33,29.73,29.49,15,6,19,0.04
2013-3-27,53,43,34,34,26,23,78,53,33,29.82,29.68,19,8,27,0.00
2013-3-28,46,42,38,36,34,28,92,73,50,29.97,29.81,12,6,18,0.02
2013-3-29,56,46,39,38,34,28,75,63,37,29.99,29.92,15,5,24,0.03
2013-3-30,51,45,39,34,32,23,77,61,34,30.05,29.96,14,5,16,0.00
2013-3-31,58,45,32,40,31,24,83,61,34,30.08,29.72,20,5,28,0.02
2013-4-1,60,47,37,48,38,13,97,73,36,29.73,29.44,19,9,31,0.19
2013-4-2,39,35,30,16,13,8,50,41,29,29.89,29.73,30,12,37,0.00
2013-4-3,46,37,31,17,13,6,52,38,20,30.10,29.87,28,12,35,0.00
2013-4-4,57,43,30,29,19,12,59,41,17,30.24,30.00,18,7,23,0.00
2013-4-5,61,46,39,37,29,23,69,54,30,30.00,29.59,22,6,30,0.00
2013-4-6,51,40,31,27,13,2,68,36,15,30.30,29.83,20,7,28,0.00
2013-4-7,52,43,33,41,32,22,87,67,34,30.30,29.96,20,7,28,0.00
2013-4-8,68,51,45,44,41,37,92,71,34,30.07,29.90,10,5,17,0.00
2013-4-9,75,52,44,52,44,40,94,77,38,30.05,29.80,17,4,24,0.08
2013-4-10,56,48,45,48,44,42,95,87,72,29.98,29.83,7,2,13,0.21
2013-4-11,50,45,42,44,40,30,97,85,58,30.11,29.78,13,3,16,0.07
2013-4-12,42,39,37,38,35,30,96,85,70,30.14,29.75,20,8,27,0.44
2013-4-13,54,41,35,41,37,34,96,86,57,29.89,29.73,14,4,23,0.02
2013-4-14,56,48,41,41,34,28,91,63,37,30.16,29.88,14,5,25,0.01
2013-4-15,52,46,35,40,36,31,83,70,51,30.35,30.16,14,5,16,0.00
2013-4-16,62,51,40,51,42,36,92,73,52,30.37,30.01,22,8,25,0.00
2013-4-17,71,60,49,53,40,30,85,52,24,30.28,30.00,16,6,23,0.00
2013-4-18,57,50,43,44,37,29,77,61,37,30.40,30.11,17,6,22,0.00
2013-4-19,75,62,50,63,57,44,98,84,62,30.11,29.61,23,8,30,0.00
2013-4-20,65,55,45,63,42,26,96,67,39,30.15,29.55,16,8,24,0.39
2013-4-21,56,43,34,32,26,20,76,51,28,30.64,30.15,13,5,26,0.00
2013-4-22,48,42,34,37,33,26,85,72,44,30.74,30.56,17,6,23,0.00
2013-4-23,42,41,39,41,39,32,96,92,73,30.56,30.08,24,8,26,0.06
2013-4-24,66,50,42,54,45,41,97,85,59,30.08,29.75,20,9,28,0.01
2013-4-25,70,56,47,53,40,29,93,60,24,30.22,29.77,18,6,27,0.03
2013-4-26,53,48,44,42,37,31,89,67,49,30.39,30.22,13,5,18,0.00
2013-4-27,61,51,41,44,37,29,94,63,35,30.38,30.25,9,3,12,0.00
2013-4-28,60,53,45,44,40,33,80,62,45,30.31,30.19,21,4,25,0.00
2013-4-29,63,56,48,48,40,20,92,58,22,30.24,30.15,19,5,24,0.00
2013-4-30,62,54,47,43,33,16,80,49,17,30.33,30.20,13,4,15,0.00
2013-5-1,60,53,42,46,41,32,82,66,41,30.44,30.33,14,3,15,0.00
2013-5-2,70,55,46,48,44,36,91,70,30,30.44,30.33,17,4,30,0.00
2013-5-3,55,49,43,46,42,39,90,78,66,30.49,30.33,15,5,24,0.00
2013-5-4,52,48,42,45,41,39,91,78,65,30.34,30.28,16,4,22,0.00
2013-5-5,54,47,38,44,41,37,97,80,61,30.29,30.22,11,4,16,0.00
2013-5-6,54,48,43,50,46,41,94,90,79,30.26,30.12,11,2,16,0.00
2013-5-7,67,58,49,58,52,46,94,82,59,30.14,30.05,15,3,16,0.00
2013-5-8,65,58,54,59,56,53,96,91,80,30.17,30.01,11,3,17,0.10
2013-5-9,61,57,55,60,56,53,98,96,89,30.01,29.84,7,2,10,0.39
2013-5-10,74,61,55,63,57,54,99,88,65,29.90,29.84,9,3,13,0.00
2013-5-11,72,64,58,63,59,55,96,86,71,29.86,29.64,17,5,24,0.04
2013-5-12,74,62,51,61,52,30,98,75,40,29.74,29.50,17,4,26,0.07
2013-5-13,62,52,42,34,31,28,74,48,30,29.97,29.75,16,5,21,0.00
2013-5-14,62,52,42,37,32,28,73,48,30,30.00,29.91,13,5,20,0.00
2013-5-15,63,53,40,53,40,31,89,64,34,30.01,29.63,12,4,22,0.00
2013-5-16,84,69,53,52,43,35,94,46,20,29.75,29.57,20,6,35,0.00
2013-5-17,70,59,52,46,43,41,78,57,38,30.16,29.75,13,4,20,0.00
2013-5-18,75,59,47,52,47,43,90,68,35,30.26,30.16,11,3,14,0.00
2013-5-19,66,55,48,54,51,46,97,86,64,30.30,30.18,13,3,17,0.10
2013-5-20,86,65,54,66,60,53,98,84,51,30.17,29.86,15,2,15,0.02
2013-5-21,66,57,51,61,55,50,98,94,80,30.00,29.83,13,4,20,0.01
2013-5-22,60,53,50,57,52,49,98,95,89,30.02,29.84,14,3,19,0.24
2013-5-23,76,62,53,69,60,52,99,93,76,29.89,29.76,13,3,24,0.03
2013-5-24,68,62,52,66,61,51,98,95,83,29.76,29.59,10,4,16,0.53
2013-5-25,54,49,42,52,47,39,98,95,90,29.75,29.63,15,7,24,0.18
2013-5-26,61,49,40,44,40,38,96,75,49,30.03,29.64,23,9,28,0.07
2013-5-27,76,60,43,46,40,34,89,53,22,30.12,30.01,15,5,23,0.00
2013-5-28,67,58,47,53,47,38,89,68,37,30.20,30.11,10,3,16,0.00
2013-5-29,68,60,56,64,58,52,98,93,80,30.14,29.94,6,2,9,0.33
2013-5-30,92,82,62,70,66,61,98,62,43,30.02,29.93,12,4,19,0.01
2013-5-31,96,84,69,70,66,64,85,58,37,30.02,29.85,12,4,17,0.00
2013-6-1,95,83,70,70,66,63,78,59,38,29.90,29.78,14,4,20,0.00
2013-6-2,88,78,70,71,68,64,88,72,54,29.81,29.65,17,6,24,0.00
2013-6-3,74,69,64,68,64,47,96,84,51,29.79,29.69,10,3,15,0.22
2013-6-4,75,64,53,48,46,43,70,52,36,30.04,29.76,17,6,23,0.00
2013-6-5,76,63,53,52,48,44,81,59,33,30.13,30.03,10,4,14,0.00
2013-6-6,72,64,56,56,53,48,87,68,50,30.14,30.06,7,2,19,0.00
2013-6-7,58,55,54,56,54,51,100,94,86,30.08,29.77,14,4,16,1.91
2013-6-8,82,64,53,66,58,52,98,83,54,29.94,29.55,16,6,20,0.24
2013-6-9,83,71,58,60,57,55,94,65,39,30.10,29.94,10,4,16,0.00
2013-6-10,66,62,57,58,57,55,97,84,71,30.17,29.97,11,3,15,0.41
2013-6-11,64,58,55,59,56,53,99,95,82,29.98,29.52,15,4,24,1.03
2013-6-12,72,61,56,59,56,54,98,86,57,29.75,29.50,17,4,27,0.04
2013-6-13,73,59,53,59,54,52,96,85,55,29.76,29.64,10,2,16,0.53
2013-6-14,79,62,51,58,54,50,97,78,47,29.71,29.59,13,4,16,0.59
2013-6-15,83,70,59,55,50,42,81,52,24,29.87,29.71,12,4,18,0.00
2013-6-16,78,69,58,63,55,49,83,62,42,29.87,29.65,10,3,17,0.00
2013-6-17,88,71,62,65,61,56,96,74,34,29.84,29.71,12,4,19,0.70
2013-6-18,72,63,58,64,59,57,96,88,66,29.89,29.83,11,2,19,0.26
2013-6-19,72,64,56,59,52,47,96,70,43,30.09,29.85,13,3,18,0.02
2013-6-20,78,66,53,60,55,50,91,69,45,30.20,30.09,8,2,13,0.00
2013-6-21,84,71,61,65,61,55,86,71,50,30.19,30.13,11,3,13,0.00
2013-6-22,86,76,64,66,61,57,83,62,44,30.16,30.05,10,4,19,0.00
2013-6-23,92,78,66,74,66,57,79,67,54,30.10,29.91,10,4,20,0.00
2013-6-24,97,82,70,74,71,68,95,73,43,29.95,29.79,14,5,28,0.44
2013-6-25,94,81,70,73,70,67,95,71,45,29.85,29.65,15,4,18,0.01
2013-6-26,89,73,64,71,68,63,98,86,55,29.81,29.65,7,2,13,0.91
2013-6-27,68,64,60,65,63,60,99,97,89,29.83,29.71,9,3,13,0.02
2013-6-28,78,69,60,73,67,60,99,94,80,29.72,29.44,13,4,21,0.26
2013-6-29,82,74,69,72,70,67,99,87,68,29.66,29.46,12,4,22,0.00
2013-6-30,82,75,70,74,70,68,94,86,75,29.88,29.66,11,4,17,0.00
2013-7-1,79,73,71,75,72,69,98,95,85,30.03,29.87,11,2,17,0.28
2013-7-2,80,69,60,75,67,59,97,93,78,30.16,30.02,11,3,14,0.01
2013-7-3,92,76,60,76,69,59,98,81,57,30.15,30.06,10,3,19,0.00
2013-7-4,96,84,74,77,74,72,94,74,51,30.14,30.01,11,4,18,0.00
2013-7-5,97,86,77,77,75,73,87,70,50,30.09,29.95,10,4,18,0.00
2013-7-6,97,86,77,75,72,64,88,66,46,30.00,29.89,14,4,21,0.00
2013-7-7,95,81,74,75,69,64,90,68,42,29.95,29.83,9,3,12,0.01
2013-7-8,90,76,65,77,70,63,94,85,65,30.01,29.84,13,3,15,0.00
2013-7-9,74,68,64,68,64,63,96,90,80,30.06,29.99,7,2,11,0.00
2013-7-10,84,73,66,75,70,64,98,91,72,30.02,29.73,17,3,20,0.00
2013-7-11,82,77,72,75,72,69,95,87,73,29.86,29.71,8,2,13,0.05
2013-7-12,76,70,66,69,62,58,96,77,58,30.15,29.86,15,6,23,0.00
2013-7-13,75,69,66,69,65,62,95,88,79,30.26,30.15,8,2,10,0.00
2013-7-14,94,78,68,76,72,66,98,82,49,30.24,30.14,12,2,13,0.00
2013-7-15,93,81,73,76,72,68,94,75,51,30.14,30.03,6,2,10,0.00
2013-7-16,96,81,72,74,70,66,84,70,47,30.10,30.04,9,3,13,0.00
2013-7-17,88,81,73,76,72,68,89,76,65,30.12,29.91,8,2,15,0.00
2013-7-18,92,81,75,76,72,69,89,76,56,29.95,29.88,13,3,17,0.00
2013-7-19,99,88,75,79,75,71,93,69,42,29.88,29.63,11,5,26,0.00
2013-7-20,95,86,77,78,75,67,86,71,49,29.73,29.57,12,4,28,0.05
2013-7-21,78,73,70,68,65,60,93,76,59,29.94,29.73,10,3,13,0.00
2013-7-22,76,71,67,70,68,66,97,90,76,29.97,29.84,14,3,16,0.00
2013-7-23,81,72,68,77,71,68,99,97,84,29.84,29.48,9,2,18,0.61
2013-7-24,90,78,68,76,69,55,99,75,51,29.90,29.52,12,3,17,0.01
2013-7-25,67,62,60,60,56,52,97,82,65,30.05,29.89,10,5,16,0.23
2013-7-26,72,65,60,67,63,59,98,94,82,30.00,29.86,15,5,19,0.75
2013-7-27,82,72,61,69,65,59,95,79,59,30.00,29.92,8,3,14,0.00
2013-7-28,75,69,65,70,67,64,97,92,81,29.97,29.92,10,2,12,0.01
2013-7-29,77,70,66,72,68,65,98,92,72,29.98,29.91,6,1,11,0.03
2013-7-30,87,74,64,67,63,57,98,73,38,30.03,29.97,11,3,16,0.00
2013-7-31,82,72,63,66,61,-100,89,70,45,30.08,29.99,5,0,10,0.00
2013-8-1,78,72,65,68,64,62,92,78,63,29.99,29.83,8,2,15,0.00
2013-8-2,86,73,64,70,64,58,98,75,43,29.83,29.72,12,2,21,0.38
2013-8-3,81,72,66,65,64,62,92,75,56,29.81,29.71,12,3,18,0.01
2013-8-4,85,71,62,66,59,54,90,68,39,29.82,29.70,12,3,25,0.18
2013-8-5,80,68,57,56,49,40,85,56,27,29.99,29.81,12,6,21,0.00
2013-8-6,78,66,54,61,53,46,85,63,40,30.10,29.99,5,2,13,0.00
2013-8-7,75,68,59,63,58,56,92,72,55,30.14,30.06,9,2,19,0.00
2013-8-8,80,72,65,72,66,56,93,83,72,30.08,29.95,10,4,14,0.03
2013-8-9,75,72,69,74,71,68,99,96,91,29.97,29.68,11,4,16,1.15
2013-8-10,88,76,66,72,63,54,98,68,38,29.95,29.73,15,5,19,0.00
2013-8-11,84,70,58,60,56,53,89,64,38,30.02,29.94,10,3,17,0.00
2013-8-12,88,73,62,64,59,55,92,65,34,29.97,29.86,8,2,13,0.00
2013-8-13,73,69,66,68,65,62,93,86,79,29.87,29.63,6,1,8,0.00
2013-8-14,79,69,62,64,56,52,93,66,42,29.89,29.60,19,6,29,0.00
2013-8-15,82,69,56,55,52,48,85,59,35,30.05,29.90,12,4,16,0.00
2013-8-16,84,70,57,59,55,51,85,62,34,30.13,30.05,12,3,16,0.00
2013-8-17,76,68,60,62,58,55,90,72,55,30.22,30.13,10,2,12,0.00
2013-8-18,78,70,63,66,62,58,88,75,64,30.22,30.02,6,1,10,0.00
2013-8-19,86,74,62,64,61,58,91,67,44,30.02,29.88,11,4,18,0.00
2013-8-20,91,76,66,67,64,61,84,68,41,30.02,29.91,5,2,11,0.00
2013-8-21,87,77,66,69,65,61,87,68,51,30.08,29.95,6,2,11,0.00
2013-8-22,90,78,68,72,67,64,90,72,43,29.97,29.75,10,4,17,0.00
2013-8-23,83,72,63,70,62,55,92,71,45,30.07,29.75,12,4,18,0.00
2013-8-24,73,65,56,55,49,43,80,58,38,30.27,30.06,12,3,13,0.00
2013-8-25,78,69,56,58,53,47,85,59,42,30.31,30.12,7,3,11,0.00
2013-8-26,84,74,66,68,63,57,84,70,55,30.12,29.80,11,4,20,0.00
2013-8-27,79,72,66,70,67,64,93,83,69,29.84,29.78,10,2,10,0.00
2013-8-28,77,68,62,68,64,61,98,90,73,29.94,29.81,8,2,15,0.00
2013-8-29,66,64,62,64,61,58,98,92,85,30.02,29.91,13,4,20,0.00
2013-8-30,88,73,62,69,64,59,91,76,49,29.97,29.76,9,3,13,0.00
2013-8-31,80,74,70,74,71,68,96,89,80,29.78,29.72,8,3,12,0.04
2013-9-1,78,73,71,75,70,67,97,91,81,29.83,29.72,8,2,14,0.17
2013-9-2,80,73,70,76,71,69,98,95,84,29.82,29.65,6,1,15,0.45
2013-9-3,83,74,67,72,69,59,98,83,61,29.74,29.63,11,2,18,0.00
2013-9-4,84,72,60,62,58,54,89,63,39,29.85,29.73,11,5,20,0.00
2013-9-5,68,64,54,62,57,47,92,79,68,30.09,29.80,10,2,16,0.03
2013-9-6,74,60,47,50,44,39,84,59,31,30.19,30.03,7,3,12,0.00
2013-9-7,84,67,53,58,50,46,79,58,32,30.03,29.79,12,3,15,0.00
2013-9-8,77,66,54,62,53,42,91,65,35,30.04,29.68,19,5,26,0.00
2013-9-9,72,59,46,52,46,39,87,62,36,30.18,30.04,9,3,16,0.00
2013-9-10,76,67,59,70,62,51,94,84,75,30.11,29.97,12,4,22,0.08
2013-9-11,100,82,68,78,72,67,97,75,40,30.02,29.86,11,4,20,0.00
2013-9-12,86,77,67,75,70,66,96,81,62,29.90,29.61,15,4,21,0.83
2013-9-13,76,68,60,70,65,55,98,91,75,29.69,29.50,11,2,15,0.12
2013-9-14,74,62,55,58,54,51,89,77,57,30.00,29.68,13,4,15,0.00
2013-9-15,75,61,50,56,51,48,94,71,41,30.11,29.99,12,2,13,0.00
2013-9-16,71,60,49,56,50,40,83,72,58,30.20,29.95,13,4,19,0.00
2013-9-17,65,52,42,45,40,36,85,65,43,30.38,30.20,13,4,18,0.00
2013-9-18,80,61,46,51,45,40,88,60,27,30.27,30.08,8,3,13,0.00
2013-9-19,73,62,51,58,53,47,87,72,55,30.08,29.98,7,2,10,0.00
2013-9-20,73,63,53,61,57,51,93,80,61,30.04,29.95,6,2,9,0.00
2013-9-21,75,65,55,65,60,54,98,85,62,29.98,29.68,11,3,21,0.00
2013-9-22,75,66,54,66,58,46,96,78,46,29.76,29.55,16,5,19,0.22
2013-9-23,66,55,47,46,43,40,82,65,46,29.94,29.76,15,6,20,0.00
2013-9-24,70,54,43,47,43,39,87,69,41,29.93,29.77,15,4,19,0.00
2013-9-25,65,55,46,50,47,43,90,75,54,29.94,29.83,10,2,14,0.00
2013-9-26,65,58,54,52,50,47,88,75,59,30.08,29.93,10,3,16,0.00
2013-9-27,66,60,54,53,51,48,87,74,55,30.20,30.07,17,3,17,0.00
2013-9-28,70,59,50,57,54,49,95,83,60,30.28,30.20,11,3,11,0.00
2013-9-29,63,55,49,56,51,46,98,87,58,30.22,30.08,6,1,10,0.00
2013-9-30,65,55,46,55,51,45,98,87,63,30.08,29.92,6,2,11,0.02
2013-10-1,80,62,49,57,53,48,97,75,42,29.92,29.80,10,2,12,0.00
2013-10-2,84,69,58,63,59,54,87,70,47,29.88,29.75,15,4,21,0.00
2013-10-3,83,67,58,58,53,45,86,65,29,30.02,29.88,8,3,14,0.00
2013-10-4,66,60,55,60,56,50,95,85,66,30.03,29.97,5,2,10,0.10
2013-10-5,69,61,58,60,58,56,96,88,70,30.07,30.00,6,1,9,0.00
2013-10-6,60,57,54,58,55,53,98,95,90,30.19,30.06,7,3,13,0.28
2013-10-7,76,67,58,70,64,57,100,92,79,30.09,29.76,22,4,30,0.05
2013-10-8,70,59,50,57,47,42,85,65,41,30.33,29.84,13,5,18,0.00
2013-10-9,59,52,44,48,45,41,91,77,61,30.43,30.32,13,3,18,0.00
2013-10-10,61,53,44,54,49,42,94,88,75,30.32,30.14,6,2,10,0.00
2013-10-11,69,58,51,55,49,34,97,78,28,30.14,30.06,11,3,14,0.01
2013-10-12,60,56,52,56,52,49,96,89,83,30.35,30.10,9,4,22,0.00
2013-10-13,59,52,44,51,47,42,95,82,59,30.41,30.33,10,3,16,0.00
2013-10-14,62,51,38,51,45,37,97,82,56,30.36,30.21,5,2,7,0.00
2013-10-15,64,57,50,56,52,47,93,85,72,30.22,30.14,8,2,12,0.00
2013-10-16,63,56,50,57,53,49,97,92,79,30.14,29.86,6,2,10,0.00
2013-10-17,75,62,54,62,58,53,100,86,62,29.87,29.66,10,2,17,0.00
2013-10-18,70,62,53,61,52,41,97,72,44,29.85,29.55,20,6,27,0.02
2013-10-19,65,56,46,50,45,40,81,66,47,29.93,29.71,7,3,14,0.00
2013-10-20,66,55,46,52,42,35,94,65,35,29.97,29.64,22,5,25,0.00
2013-10-21,71,55,43,50,42,36,81,64,37,30.07,29.95,12,3,15,0.00
2013-10-22,67,57,49,53,48,38,93,73,54,29.95,29.65,12,4,17,0.00
2013-10-23,55,48,40,39,36,33,84,64,44,29.75,29.55,12,2,14,0.00
2013-10-24,55,47,40,36,31,26,80,57,35,29.83,29.58,22,5,24,0.00
2013-10-25,52,43,36,36,31,27,86,63,42,30.11,29.83,14,4,23,0.00
2013-10-26,57,46,35,38,32,27,85,61,32,30.11,29.83,16,5,25,0.00
2013-10-27,58,49,41,42,36,30,90,63,42,30.01,29.77,17,4,21,0.05
2013-10-28,60,47,38,37,32,25,80,60,39,30.30,30.01,13,5,26,0.00
2013-10-29,49,39,32,36,30,24,89,69,56,30.40,30.30,8,3,13,0.00
2013-10-30,51,41,35,42,37,32,98,86,71,30.33,30.16,3,1,6,0.05
2013-10-31,63,51,38,59,49,36,96,92,84,30.20,29.76,10,3,20,0.15
2013-11-1,72,65,59,64,59,54,96,80,64,29.76,29.38,17,8,39,0.02
2013-11-2,71,58,51,54,47,44,88,71,39,29.67,29.54,16,2,16,0.00
2013-11-3,52,43,32,48,34,19,93,74,48,30.37,29.65,15,5,20,0.03
2013-11-4,43,35,29,27,22,19,82,61,43,30.66,30.37,12,4,17,0.00
2013-11-5,49,40,28,37,30,23,82,69,44,30.68,30.48,8,3,12,0.00
2013-11-6,60,51,43,51,43,36,89,75,55,30.48,29.99,12,4,20,0.00
2013-11-7,67,55,42,59,51,35,94,87,70,29.99,29.61,19,6,25,0.24
2013-11-8,50,40,34,36,29,24,84,65,45,30.04,29.76,21,6,26,0.01
2013-11-9,48,40,32,32,25,22,70,56,39,30.15,30.00,17,5,23,0.00
2013-11-10,45,44,42,42,37,31,92,79,65,30.00,29.80,6,3,11,0.07
2013-11-14,53,46,42,26,24,22,46,42,32,30.07,29.99,9,4,18,0.00
2013-11-15,60,48,37,34,24,18,61,41,22,30.15,30.06,8,4,14,0.00
2013-11-16,63,47,41,40,34,28,80,61,29,30.28,30.13,6,2,12,0.00
2013-11-17,55,47,35,54,44,32,98,88,73,30.28,29.81,9,2,15,0.02
2013-11-18,68,59,49,62,49,33,99,70,44,29.81,29.48,18,6,26,0.14
2013-11-19,49,40,31,33,23,17,62,51,37,30.22,29.59,21,9,28,0.00
2013-11-20,46,35,28,20,16,13,63,48,29,30.58,30.22,15,5,21,0.00
2013-11-21,50,38,25,31,22,15,74,53,36,30.60,30.33,7,3,12,0.00
2013-11-22,46,43,41,45,40,31,97,89,67,30.33,29.76,5,1,11,0.22
2013-11-23,48,41,30,46,28,11,97,63,33,29.85,29.72,20,8,29,0.00
2013-11-24,30,25,20,17,5,-2,72,44,29,30.12,29.72,30,13,41,0.00
2013-11-25,37,26,17,18,2,-8,57,37,16,30.32,30.11,19,7,28,0.00
2013-11-26,45,37,30,44,25,17,96,65,51,30.30,30.00,14,3,19,0.11
2013-11-27,60,50,38,60,49,34,98,95,82,30.00,29.16,22,9,29,0.06
2013-11-28,38,32,25,34,18,6,85,57,33,30.39,29.37,26,8,34,0.06
2013-11-29,37,27,20,20,12,5,76,54,34,30.70,30.38,11,4,19,0.00
2013-11-30,36,27,17,28,17,9,74,66,58,30.75,30.40,13,4,14,0.00
2013-12-1,46,40,36,42,36,28,96,86,74,30.40,29.96,12,4,17,0.27
2013-12-2,41,38,36,39,37,35,97,95,92,29.96,29.88,9,3,12,0.27
2013-12-3,51,40,35,40,35,30,97,85,63,29.90,29.80,9,4,13,0.00
2013-12-4,44,37,31,31,29,27,91,73,53,30.16,29.90,12,4,18,0.00
2013-12-5,53,44,34,52,41,29,98,90,76,30.18,29.87,8,2,15,0.00
2013-12-6,55,48,33,55,45,32,100,89,65,30.11,29.81,11,5,18,0.22
2013-12-7,42,34,28,35,28,19,95,79,59,30.41,30.03,18,5,20,0.13
2013-12-8,32,28,23,22,18,16,81,67,56,30.56,30.41,5,2,10,0.13
2013-12-9,41,35,26,40,32,17,97,91,61,30.47,29.83,11,4,23,0.36
2013-12-10,36,32,25,33,28,14,97,88,60,29.95,29.73,13,4,23,0.02
2013-12-11,34,27,23,21,18,15,83,70,52,30.16,29.95,17,6,20,0.02
2013-12-12,30,22,18,19,9,0,86,58,31,30.23,30.03,15,4,22,0.00
2013-12-13,32,22,14,19,11,3,81,63,47,30.36,29.95,19,6,23,0.00
2013-12-14,29,18,10,28,9,-4,96,71,53,30.57,30.13,18,6,25,0.00
2013-12-15,36,28,21,36,27,20,98,93,78,30.13,29.36,29,9,37,0.18
2013-12-16,31,25,17,23,14,7,85,63,39,30.17,29.69,17,7,25,0.18
2013-12-17,25,16,7,23,10,0,94,79,55,30.26,29.89,16,4,20,0.00
2013-12-18,33,25,16,30,22,14,95,89,81,30.03,29.82,14,6,21,0.04
2013-12-19,44,32,26,28,25,22,85,73,54,30.08,29.91,13,4,24,0.04
2013-12-20,52,43,36,39,33,27,79,68,57,30.08,29.85,11,3,15,0.04
2013-12-21,56,50,44,48,44,35,87,79,68,29.91,29.81,15,5,17,0.00
2013-12-22,54,40,34,52,39,33,98,95,87,30.00,29.76,13,4,22,0.00
2013-12-23,37,34,31,37,33,31,98,98,97,30.06,29.92,9,3,14,0.47
2013-12-24,38,33,26,37,24,14,97,72,51,30.15,30.01,16,6,21,0.47
2013-12-25,27,20,13,16,7,1,74,58,41,30.52,30.15,16,5,23,0.00
2013-12-26,37,28,19,35,24,12,95,84,71,30.47,30.04,10,3,15,0.01
2013-12-27,34,29,23,26,22,19,90,74,60,30.23,30.14,15,4,20,0.01
2013-12-28,49,37,28,30,26,22,81,67,47,30.17,29.94,12,5,24,0.01
2013-12-29,42,39,36,41,33,27,97,80,66,29.99,29.35,18,4,24,1.08
2013-12-30,44,34,18,36,25,8,96,72,41,30.13,29.46,15,7,27,1.08
2013-12-31,27,19,12,16,6,-2,73,55,39,30.14,30.00,9,4,16,0.00
2014-1-1,29,22,17,12,9,6,66,56,42,30.35,30.14,15,4,22,0.00
2014-1-2,22,16,1,21,13,-2,100,89,63,30.33,29.81,22,8,27,0.00